createdAt,value
2022-10-01T00:00:02.103Z,7.24
2022-10-01T00:05:26.188Z,7.26
2022-10-01T00:10:30.621Z,7.27
2022-10-01T00:15:33.727Z,7.27
2022-10-01T00:20:43.697Z,7.23
2022-10-01T00:25:46.800Z,7.21
2022-10-01T00:30:49.803Z,7.20
2022-10-01T00:35:55.091Z,7.18
2022-10-01T00:40:58.881Z,7.15
2022-10-01T00:46:18.730Z,7.15
2022-10-01T00:51:23.219Z,7.17
2022-10-01T00:56:26.629Z,7.18
2022-10-01T01:01:29.685Z,7.21
2022-10-01T01:06:32.841Z,7.22
2022-10-01T01:11:55.914Z,7.22
2022-10-01T01:17:08.812Z,7.22
2022-10-01T01:22:14.419Z,7.21
2022-10-01T01:27:46.619Z,7.22
2022-10-01T01:33:13.155Z,7.22
2022-10-01T01:38:22.293Z,7.22
2022-10-01T01:43:31.462Z,7.22
2022-10-01T01:48:37.926Z,7.22
2022-10-01T01:53:41.411Z,7.22
2022-10-01T01:58:46.091Z,7.23
2022-10-01T02:03:49.505Z,7.24
2022-10-01T02:08:55.271Z,7.23
2022-10-01T02:14:04.215Z,7.21
2022-10-01T02:19:20.120Z,7.15
2022-10-01T02:24:41.659Z,7.10
2022-10-01T02:29:45.994Z,7.02
2022-10-01T02:34:51.221Z,6.94
2022-10-01T02:39:57.584Z,6.87
2022-10-01T02:45:03.547Z,6.79
2022-10-01T02:50:08.732Z,6.70
2022-10-01T02:55:23.638Z,6.59
2022-10-01T03:00:27.257Z,6.43
2022-10-01T03:05:31.285Z,6.27
2022-10-01T03:10:35.003Z,6.14
2022-10-01T03:15:38.056Z,6.04
2022-10-01T03:20:41.215Z,5.94
2022-10-01T03:25:44.220Z,5.81
2022-10-01T03:30:47.220Z,5.68
2022-10-01T03:35:50.224Z,5.60
2022-10-01T03:40:53.536Z,5.52
2022-10-01T03:45:57.031Z,5.45
2022-10-01T03:51:00.975Z,5.37
2022-10-01T03:56:05.412Z,5.31
2022-10-01T04:01:08.518Z,5.24
2022-10-01T04:06:12.648Z,5.19
2022-10-01T04:11:15.855Z,5.18
2022-10-01T04:16:19.170Z,5.17
2022-10-01T04:21:22.270Z,5.20
2022-10-01T04:26:25.478Z,5.28
2022-10-01T04:31:35.284Z,5.33
2022-10-01T04:36:38.963Z,5.35
2022-10-01T04:41:42.174Z,5.33
2022-10-01T04:46:45.292Z,5.28
2022-10-01T04:51:48.583Z,5.24
2022-10-01T04:56:51.998Z,5.24
2022-10-01T05:01:55.029Z,5.27
2022-10-01T05:06:58.207Z,5.33
2022-10-01T05:12:01.954Z,5.47
2022-10-01T05:17:06.162Z,5.65
2022-10-01T05:22:09.264Z,5.85
2022-10-01T05:27:13.506Z,6.08
2022-10-01T05:32:16.808Z,6.44
2022-10-01T05:37:19.943Z,7.69
2022-10-01T05:42:23.018Z,9.42
2022-10-01T05:47:26.534Z,11.23
2022-10-01T05:52:29.742Z,12.99
2022-10-01T05:57:33.319Z,14.65
2022-10-01T06:02:36.531Z,16.13
2022-10-01T06:07:39.879Z,17.46
2022-10-01T06:12:46.247Z,18.53
2022-10-01T06:17:49.468Z,19.73
2022-10-01T06:22:57.386Z,20.93
2022-10-01T06:28:01.265Z,22.03
2022-10-01T06:33:13.223Z,23.08
2022-10-01T06:38:18.443Z,24.17
2022-10-01T06:43:22.761Z,25.16
2022-10-01T06:48:25.931Z,26.49
2022-10-01T06:53:29.759Z,27.69
2022-10-01T06:58:33.460Z,28.52
2022-10-01T07:03:36.673Z,29.26
2022-10-01T07:08:40.083Z,30.32
2022-10-01T07:13:43.188Z,31.06
2022-10-01T07:18:46.246Z,31.80
2022-10-01T07:23:49.401Z,32.61
2022-10-01T07:28:52.915Z,33.40
2022-10-01T07:33:59.296Z,34.03
2022-10-01T07:39:02.402Z,34.48
2022-10-01T07:44:05.611Z,35.02
2022-10-01T07:49:09.848Z,35.23
2022-10-01T07:54:13.972Z,35.41
2022-10-01T07:59:17.282Z,35.52
2022-10-01T08:04:40.152Z,35.68
2022-10-01T08:09:43.463Z,35.89
2022-10-01T08:14:48.118Z,36.18
2022-10-01T08:19:51.312Z,36.52
2022-10-01T08:24:54.978Z,36.88
2022-10-01T08:29:58.033Z,37.12
2022-10-01T08:35:01.564Z,37.47
2022-10-01T08:40:07.502Z,37.50
2022-10-01T08:45:27.633Z,37.34
2022-10-01T08:50:53.261Z,37.76
2022-10-01T08:55:57.934Z,37.68
2022-10-01T09:01:01.837Z,37.88
2022-10-01T09:06:11.576Z,38.20
2022-10-01T09:11:25.037Z,38.04
2022-10-01T09:16:56.205Z,37.92
2022-10-01T09:22:03.796Z,37.08
2022-10-01T09:27:19.538Z,37.52
2022-10-01T09:32:32.393Z,38.27
2022-10-01T09:37:49.173Z,38.74
2022-10-01T09:42:52.687Z,38.30
2022-10-01T09:48:04.183Z,37.26
2022-10-01T09:53:18.749Z,36.51
2022-10-01T09:58:27.091Z,32.87
2022-10-01T10:03:32.153Z,28.24
2022-10-01T10:08:43.461Z,25.51
2022-10-01T10:13:53.183Z,23.35
2022-10-01T10:19:07.175Z,21.83
2022-10-01T10:24:32.776Z,20.83
2022-10-01T10:29:37.866Z,20.22
2022-10-01T10:34:47.078Z,19.75
2022-10-01T10:39:52.361Z,19.40
2022-10-01T10:45:03.455Z,18.93
2022-10-01T10:50:30.742Z,18.68
2022-10-01T10:55:33.926Z,18.54
2022-10-01T11:00:46.548Z,18.31
2022-10-01T11:05:52.375Z,18.20
2022-10-01T11:11:34.253Z,18.13
2022-10-01T11:17:00.392Z,18.14
2022-10-01T11:22:24.585Z,18.11
2022-10-01T11:27:37.518Z,18.21
2022-10-01T11:33:09.866Z,18.22
2022-10-01T11:38:42.728Z,18.20
2022-10-01T11:43:55.761Z,18.10
2022-10-01T11:49:05.484Z,18.03
2022-10-01T11:54:15.685Z,18.14
2022-10-01T11:59:22.785Z,18.36
2022-10-01T12:04:42.863Z,18.41
2022-10-01T12:09:55.422Z,18.21
2022-10-01T12:15:14.906Z,18.05
2022-10-01T12:20:41.462Z,18.02
2022-10-01T12:25:55.430Z,18.00
2022-10-01T12:31:19.413Z,17.99
2022-10-01T12:37:04.815Z,17.92
2022-10-01T12:42:41.609Z,17.93
2022-10-01T12:48:16.767Z,17.89
2022-10-01T12:53:36.563Z,17.71
2022-10-01T12:59:07.831Z,17.59
2022-10-01T13:04:35.612Z,17.44
2022-10-01T13:10:16.402Z,17.35
2022-10-01T13:15:42.750Z,17.30
2022-10-01T13:21:01.835Z,17.29
2022-10-01T13:26:37.407Z,17.32
2022-10-01T13:32:02.762Z,17.36
2022-10-01T13:37:32.464Z,17.33
2022-10-01T13:42:47.897Z,17.26
2022-10-01T13:47:51.465Z,17.19
2022-10-01T13:53:14.385Z,17.17
2022-10-01T13:58:31.270Z,17.18
2022-10-01T14:03:45.020Z,17.18
2022-10-01T14:08:55.437Z,17.05
2022-10-01T14:14:23.082Z,16.80
2022-10-01T14:19:28.588Z,16.57
2022-10-01T14:24:51.098Z,16.28
2022-10-01T14:30:13.049Z,15.99
2022-10-01T14:35:43.084Z,15.73
2022-10-01T14:40:48.888Z,15.47
2022-10-01T14:45:59.200Z,15.26
2022-10-01T14:51:05.642Z,15.14
2022-10-01T14:56:14.455Z,15.04
2022-10-01T15:01:19.707Z,14.94
2022-10-01T15:06:28.242Z,14.83
2022-10-01T15:11:34.020Z,14.71
2022-10-01T15:16:38.335Z,14.59
2022-10-01T15:21:48.845Z,14.47
2022-10-01T15:26:54.553Z,14.35
2022-10-01T15:31:58.944Z,14.21
2022-10-01T15:37:02.942Z,14.09
2022-10-01T15:42:26.841Z,13.97
2022-10-01T15:47:35.175Z,13.85
2022-10-01T15:52:52.407Z,13.73
2022-10-01T15:58:07.495Z,13.60
2022-10-01T16:03:36.611Z,13.48
2022-10-01T16:08:55.586Z,13.37
2022-10-01T16:14:44.362Z,13.25
2022-10-01T16:19:50.975Z,13.15
2022-10-01T16:25:25.388Z,13.06
2022-10-01T16:30:30.004Z,12.93
2022-10-01T16:35:36.119Z,12.83
2022-10-01T16:40:44.997Z,12.75
2022-10-01T16:45:48.442Z,12.73
2022-10-01T16:50:59.070Z,12.73
2022-10-01T16:56:02.351Z,12.73
2022-10-01T17:01:11.957Z,12.74
2022-10-01T17:06:15.427Z,12.73
2022-10-01T17:11:18.703Z,12.70
2022-10-01T17:16:24.666Z,12.69
2022-10-01T17:21:29.709Z,12.68
2022-10-01T17:26:33.429Z,12.66
2022-10-01T17:31:38.563Z,12.65
2022-10-01T17:36:42.049Z,12.64
2022-10-01T17:41:45.311Z,12.63
2022-10-01T17:46:48.572Z,12.61
2022-10-01T17:51:53.317Z,12.63
2022-10-01T17:56:56.826Z,12.64
2022-10-01T18:02:01.312Z,12.62
2022-10-01T18:07:08.568Z,12.61
2022-10-01T18:12:13.639Z,12.58
2022-10-01T18:17:17.602Z,12.57
2022-10-01T18:22:22.054Z,12.56
2022-10-01T18:27:26.215Z,12.57
2022-10-01T18:32:37.970Z,12.56
2022-10-01T18:37:41.229Z,12.52
2022-10-01T18:43:08.876Z,12.49
2022-10-01T18:48:52.266Z,12.45
2022-10-01T18:54:13.555Z,12.42
2022-10-01T18:59:36.155Z,12.40
2022-10-01T19:04:45.405Z,12.38
2022-10-01T19:10:09.133Z,12.38
2022-10-01T19:15:40.568Z,12.35
2022-10-01T19:21:08.041Z,12.33
2022-10-01T19:26:29.381Z,12.30
2022-10-01T19:31:55.241Z,12.27
2022-10-01T19:37:11.529Z,12.25
2022-10-01T19:42:22.418Z,12.23
2022-10-01T19:47:41.086Z,12.21
2022-10-01T19:52:48.706Z,12.18
2022-10-01T19:57:53.032Z,12.15
2022-10-01T20:03:01.051Z,12.11
2022-10-01T20:08:14.719Z,12.07
2022-10-01T20:13:37.264Z,12.03
2022-10-01T20:18:52.563Z,12.00
2022-10-01T20:24:14.818Z,11.99
2022-10-01T20:29:58.475Z,11.94
2022-10-01T20:35:26.793Z,11.86
2022-10-01T20:40:52.852Z,11.77
2022-10-01T20:45:57.727Z,11.70
2022-10-01T20:51:07.105Z,11.63
2022-10-01T20:56:26.732Z,11.57
2022-10-01T21:01:35.115Z,11.51
2022-10-01T21:07:01.471Z,11.47
2022-10-01T21:12:16.593Z,11.43
2022-10-01T21:17:50.014Z,11.39
2022-10-01T21:23:14.547Z,11.35
2022-10-01T21:28:21.355Z,11.30
2022-10-01T21:33:31.594Z,11.27
2022-10-01T21:38:49.771Z,11.23
2022-10-01T21:44:11.133Z,11.21
2022-10-01T21:49:34.044Z,11.17
2022-10-01T21:55:14.855Z,11.12
2022-10-01T22:00:25.050Z,11.06
2022-10-01T22:06:13.016Z,10.99
2022-10-01T22:11:26.301Z,10.92
2022-10-01T22:16:38.728Z,10.89
2022-10-01T22:21:53.486Z,10.85
2022-10-01T22:27:08.984Z,10.83
2022-10-01T22:32:15.482Z,10.80
2022-10-01T22:37:24.713Z,10.78
2022-10-01T22:42:42.663Z,10.77
2022-10-01T22:48:39.790Z,10.75
2022-10-01T22:54:07.752Z,10.72
2022-10-01T22:59:35.893Z,10.70
2022-10-01T23:05:16.816Z,10.69
2022-10-01T23:10:34.770Z,10.68
2022-10-01T23:15:57.428Z,10.67
2022-10-01T23:21:00.541Z,10.69
2022-10-01T23:26:18.904Z,10.69
2022-10-01T23:32:00.445Z,10.70
2022-10-01T23:37:17.492Z,10.71
2022-10-01T23:42:28.124Z,10.72
2022-10-01T23:47:45.976Z,10.74
2022-10-01T23:53:03.537Z,10.77
2022-10-01T23:58:11.540Z,10.80
